createdAt,value
2018-07-06T00:00:01.419Z,99.90
2018-07-06T00:02:41.485Z,99.90
2018-07-06T00:05:21.749Z,99.90
2018-07-06T00:08:01.797Z,99.90
2018-07-06T00:10:43.005Z,99.90
2018-07-06T00:13:23.178Z,99.90
2018-07-06T00:16:08.675Z,99.90
2018-07-06T00:18:48.824Z,99.90
2018-07-06T00:21:29.009Z,99.90
2018-07-06T00:24:09.066Z,99.90
2018-07-06T00:26:49.216Z,99.90
2018-07-06T00:29:29.283Z,99.90
2018-07-06T00:32:09.472Z,99.90
2018-07-06T00:34:49.693Z,99.90
2018-07-06T00:37:29.746Z,99.90
2018-07-06T00:40:09.998Z,99.90
2018-07-06T00:42:50.110Z,99.90
2018-07-06T00:45:30.290Z,99.90
2018-07-06T00:48:10.481Z,99.90
2018-07-06T00:50:51.636Z,99.90
2018-07-06T00:53:31.748Z,99.90
2018-07-06T00:56:11.774Z,99.90
2018-07-06T00:58:51.876Z,99.90
2018-07-06T01:01:31.938Z,99.90
2018-07-06T01:04:15.443Z,99.90
2018-07-06T01:06:55.603Z,99.90
2018-07-06T01:09:35.662Z,99.90
2018-07-06T01:12:21.945Z,99.90
2018-07-06T01:15:06.234Z,99.90
2018-07-06T01:17:46.693Z,99.90
2018-07-06T01:20:26.751Z,99.90
2018-07-06T01:23:07.109Z,99.90
2018-07-06T01:25:47.266Z,99.90
2018-07-06T01:28:27.309Z,99.90
2018-07-06T01:31:07.553Z,99.90
2018-07-06T01:33:47.538Z,99.90
2018-07-06T01:36:27.596Z,99.90
2018-07-06T01:39:07.748Z,99.90
2018-07-06T01:41:47.965Z,99.90
2018-07-06T01:44:28.050Z,99.90
2018-07-06T01:47:09.302Z,99.90
2018-07-06T01:49:49.560Z,99.90
2018-07-06T01:52:29.665Z,99.90
2018-07-06T01:55:09.835Z,99.90
2018-07-06T01:57:49.944Z,99.90
2018-07-06T02:00:30.265Z,99.90
2018-07-06T02:03:10.332Z,99.90
2018-07-06T02:05:50.954Z,99.90
2018-07-06T02:08:31.141Z,99.90
2018-07-06T02:11:12.362Z,99.90
2018-07-06T02:13:52.634Z,99.90
2018-07-06T02:16:32.820Z,99.90
2018-07-06T02:19:12.974Z,99.90
2018-07-06T02:21:54.313Z,99.90
2018-07-06T02:24:34.450Z,99.90
2018-07-06T02:27:14.669Z,99.90
2018-07-06T02:29:54.700Z,99.90
2018-07-06T02:32:34.874Z,99.90
2018-07-06T02:35:15.094Z,99.90
2018-07-06T02:37:55.141Z,99.90
2018-07-06T02:40:35.277Z,99.90
2018-07-06T02:43:16.397Z,99.90
2018-07-06T02:45:56.386Z,99.90
2018-07-06T02:48:36.632Z,99.90
2018-07-06T02:51:16.686Z,99.90
2018-07-06T02:53:57.936Z,99.90
2018-07-06T02:56:38.146Z,99.90
2018-07-06T02:59:20.252Z,99.90
2018-07-06T03:02:00.417Z,99.90
2018-07-06T03:04:40.621Z,99.90
2018-07-06T03:07:20.831Z,99.90
2018-07-06T03:10:01.449Z,99.90
2018-07-06T03:12:41.517Z,99.90
2018-07-06T03:15:22.753Z,99.90
2018-07-06T03:18:04.925Z,99.90
2018-07-06T03:20:45.031Z,99.90
2018-07-06T03:23:25.233Z,99.90
2018-07-06T03:26:05.410Z,99.90
2018-07-06T03:28:45.709Z,99.90
2018-07-06T03:31:25.549Z,99.90
2018-07-06T03:34:09.702Z,99.90
2018-07-06T03:36:49.841Z,99.90
2018-07-06T03:39:30.053Z,99.90
2018-07-06T03:42:10.213Z,99.90
2018-07-06T03:44:51.361Z,99.90
2018-07-06T03:47:31.648Z,99.90
2018-07-06T03:50:11.923Z,99.90
2018-07-06T03:52:52.208Z,99.90
2018-07-06T03:58:07.460Z,99.90
2018-07-06T04:00:47.613Z,99.90
2018-07-06T04:03:27.855Z,99.90
2018-07-06T04:06:07.918Z,99.90
2018-07-06T04:08:48.175Z,99.90
2018-07-06T04:11:28.258Z,99.90
2018-07-06T04:14:08.367Z,99.90
2018-07-06T04:16:48.688Z,99.90
2018-07-06T04:19:28.875Z,99.90
2018-07-06T04:22:08.932Z,99.90
2018-07-06T04:24:49.013Z,99.90
2018-07-06T04:27:29.476Z,99.90
2018-07-06T04:30:14.133Z,99.90
2018-07-06T04:32:55.495Z,99.90
2018-07-06T04:35:35.581Z,99.90
2018-07-06T04:38:15.647Z,99.90
2018-07-06T04:40:56.181Z,99.90
2018-07-06T04:43:36.441Z,99.90
2018-07-06T04:46:16.627Z,99.90
2018-07-06T04:48:56.678Z,99.90
2018-07-06T04:51:36.602Z,99.90
2018-07-06T04:54:16.654Z,99.90
2018-07-06T04:56:56.618Z,99.90
2018-07-06T04:59:38.699Z,99.90
2018-07-06T05:02:18.934Z,99.90
2018-07-06T05:04:58.999Z,99.90
2018-07-06T05:07:39.121Z,99.90
2018-07-06T05:10:19.349Z,99.90
2018-07-06T05:15:33.436Z,99.90
2018-07-06T05:18:13.549Z,99.90
2018-07-06T05:20:53.689Z,99.90
2018-07-06T05:23:33.848Z,99.90
2018-07-06T05:26:13.975Z,99.90
2018-07-06T05:28:55.321Z,99.90
2018-07-06T05:31:35.603Z,99.90
2018-07-06T05:34:15.898Z,99.90
2018-07-06T05:36:56.212Z,99.90
2018-07-06T05:39:36.543Z,99.90
2018-07-06T05:42:16.672Z,99.90
2018-07-06T05:44:56.836Z,99.90
2018-07-06T05:47:37.033Z,99.90
2018-07-06T05:50:17.224Z,99.90
2018-07-06T05:52:57.255Z,99.90
2018-07-06T05:55:37.413Z,99.90
2018-07-06T05:58:17.756Z,99.90
2018-07-06T06:03:31.740Z,99.90
2018-07-06T06:06:11.913Z,99.90
2018-07-06T06:08:39.732Z,99.90
2018-07-06T06:11:10.549Z,99.90
2018-07-06T06:13:39.290Z,99.90
2018-07-06T06:16:08.054Z,99.90
2018-07-06T06:18:37.949Z,99.90
2018-07-06T06:21:06.775Z,99.90
2018-07-06T06:23:35.685Z,99.90
2018-07-06T06:26:04.473Z,99.90
2018-07-06T06:28:33.227Z,99.90
2018-07-06T06:31:02.044Z,99.90
2018-07-06T06:33:30.907Z,99.90
2018-07-06T06:35:59.513Z,99.90
2018-07-06T06:38:28.369Z,99.90
2018-07-06T06:40:57.138Z,99.90
2018-07-06T06:43:26.312Z,99.90
2018-07-06T06:45:55.471Z,99.90
2018-07-06T06:48:24.185Z,99.90
2018-07-06T06:50:52.928Z,99.90
2018-07-06T06:53:22.771Z,99.90
2018-07-06T06:55:51.479Z,99.90
2018-07-06T06:58:20.177Z,99.90
2018-07-06T07:00:49.059Z,99.90
2018-07-06T07:03:17.921Z,99.90
2018-07-06T07:05:48.496Z,99.90
2018-07-06T07:08:17.213Z,99.90
2018-07-06T07:10:46.169Z,99.90
2018-07-06T07:13:15.379Z,99.90
2018-07-06T07:15:47.205Z,99.90
2018-07-06T07:18:15.913Z,99.90
2018-07-06T07:20:46.739Z,99.90
2018-07-06T07:23:16.050Z,99.90
2018-07-06T07:25:44.870Z,99.90
2018-07-06T07:28:21.278Z,99.90
2018-07-06T07:30:50.029Z,99.90
2018-07-06T07:33:18.799Z,99.90
2018-07-06T07:35:47.541Z,99.90
2018-07-06T07:38:16.507Z,99.90
2018-07-06T07:40:45.172Z,99.90
2018-07-06T07:45:42.650Z,99.90
2018-07-06T07:48:11.432Z,99.90
2018-07-06T07:50:51.573Z,99.90
2018-07-06T07:53:35.001Z,99.90
2018-07-06T07:56:04.826Z,99.90
2018-07-06T07:58:33.763Z,99.90
2018-07-06T08:01:02.849Z,99.90
2018-07-06T08:03:31.337Z,99.90
2018-07-06T08:06:00.083Z,99.90
2018-07-06T08:08:28.869Z,99.90
2018-07-06T08:10:57.674Z,99.90
2018-07-06T08:13:26.491Z,99.90
2018-07-06T08:15:55.439Z,99.90
2018-07-06T08:18:24.908Z,99.90
2018-07-06T08:20:53.547Z,99.90
2018-07-06T08:23:22.466Z,99.90
2018-07-06T08:25:51.410Z,99.90
2018-07-06T08:28:20.125Z,99.90
2018-07-06T08:30:48.900Z,99.90
2018-07-06T08:33:17.714Z,99.90
2018-07-06T08:35:57.785Z,99.90
2018-07-06T08:38:26.717Z,99.90
2018-07-06T08:40:55.486Z,99.90
2018-07-06T08:43:24.220Z,99.90
2018-07-06T08:46:07.229Z,99.90
2018-07-06T08:48:40.103Z,99.90
2018-07-06T08:51:08.799Z,99.90
2018-07-06T08:53:37.735Z,99.90
2018-07-06T08:56:07.058Z,99.90
2018-07-06T08:58:36.369Z,99.90
2018-07-06T09:01:05.380Z,99.90
2018-07-06T09:03:34.079Z,99.90
2018-07-06T09:06:03.346Z,99.90
2018-07-06T09:08:32.282Z,99.90
2018-07-06T09:11:02.214Z,99.90
2018-07-06T09:13:31.061Z,99.90
2018-07-06T09:15:59.825Z,99.90
2018-07-06T09:18:28.651Z,99.90
2018-07-06T09:20:57.594Z,99.90
2018-07-06T09:23:26.494Z,99.90
2018-07-06T09:25:55.637Z,99.90
2018-07-06T09:28:24.210Z,99.90
2018-07-06T09:30:53.813Z,99.90
2018-07-06T09:33:22.801Z,99.90
2018-07-06T09:35:51.767Z,99.90
2018-07-06T09:38:20.949Z,99.90
2018-07-06T09:40:51.933Z,99.90
2018-07-06T09:43:20.945Z,99.90
2018-07-06T09:45:49.942Z,99.90
2018-07-06T09:48:19.727Z,99.90
2018-07-06T09:50:48.645Z,99.90
2018-07-06T09:53:18.917Z,99.90
2018-07-06T09:55:48.230Z,99.90
2018-07-06T09:58:18.889Z,99.90
2018-07-06T10:00:53.513Z,99.90
2018-07-06T10:03:22.246Z,99.90
2018-07-06T10:05:51.187Z,99.90
2018-07-06T10:10:48.392Z,99.90
2018-07-06T10:13:17.236Z,99.90
2018-07-06T10:15:46.002Z,99.90
2018-07-06T10:18:15.490Z,99.90
2018-07-06T10:20:44.306Z,99.90
2018-07-06T10:23:13.371Z,99.90
2018-07-06T10:25:42.194Z,99.90
2018-07-06T10:29:20.861Z,99.90
2018-07-06T10:32:19.287Z,99.90
2018-07-06T10:34:48.261Z,99.90
2018-07-06T10:37:17.927Z,99.90
2018-07-06T10:39:47.340Z,99.90
2018-07-06T10:42:16.039Z,99.90
2018-07-06T10:44:48.045Z,99.90
2018-07-06T10:47:19.503Z,99.90
2018-07-06T10:49:48.538Z,99.90
2018-07-06T10:52:17.656Z,99.90
2018-07-06T10:54:48.545Z,99.90
2018-07-06T10:57:17.284Z,99.90
2018-07-06T11:02:15.094Z,99.90
2018-07-06T11:04:44.097Z,99.90
2018-07-06T11:07:19.005Z,99.90
2018-07-06T11:09:48.043Z,99.90
2018-07-06T11:12:17.431Z,99.90
2018-07-06T11:14:47.535Z,99.90
2018-07-06T11:17:16.433Z,99.90
2018-07-06T11:19:47.355Z,99.90
2018-07-06T11:22:16.477Z,99.90
2018-07-06T11:24:45.562Z,99.90
2018-07-06T11:27:15.123Z,99.90
2018-07-06T11:29:44.294Z,99.90
2018-07-06T11:32:14.494Z,99.90
2018-07-06T11:34:43.337Z,99.90
2018-07-06T11:37:12.164Z,99.90
2018-07-06T11:39:40.919Z,99.90
2018-07-06T11:42:09.611Z,99.90
2018-07-06T11:44:39.000Z,99.90
2018-07-06T11:47:07.865Z,99.90
2018-07-06T11:49:36.693Z,99.90
2018-07-06T11:52:06.620Z,99.90
2018-07-06T11:54:36.048Z,99.90
2018-07-06T11:57:05.452Z,99.90
2018-07-06T11:59:35.522Z,99.90
2018-07-06T12:02:04.311Z,99.90
2018-07-06T12:04:33.804Z,99.90
2018-07-06T12:07:02.642Z,99.90
2018-07-06T12:09:31.617Z,99.90
2018-07-06T12:12:02.595Z,99.90
2018-07-06T12:14:31.344Z,99.90
2018-07-06T12:17:00.073Z,99.90
2018-07-06T12:19:29.098Z,99.90
2018-07-06T12:22:01.468Z,99.90
2018-07-06T12:29:34.218Z,99.90
2018-07-06T12:32:03.641Z,99.90
2018-07-06T12:34:38.303Z,99.90
2018-07-06T12:37:08.194Z,99.90
2018-07-06T12:39:37.004Z,99.90
2018-07-06T12:42:06.178Z,99.90
2018-07-06T12:44:35.345Z,99.90
2018-07-06T12:49:32.632Z,99.90
2018-07-06T12:52:02.109Z,99.90
2018-07-06T12:54:31.686Z,99.90
2018-07-06T12:57:01.221Z,99.90
2018-07-06T12:59:30.069Z,99.90
2018-07-06T13:01:59.879Z,99.90
2018-07-06T13:04:32.856Z,99.90
2018-07-06T13:07:01.613Z,99.90
2018-07-06T13:09:30.540Z,99.90
2018-07-06T13:11:59.240Z,99.90
2018-07-06T13:14:28.119Z,99.90
2018-07-06T13:16:57.691Z,99.90
2018-07-06T13:19:32.600Z,99.90
2018-07-06T13:22:01.442Z,99.90
2018-07-06T13:24:30.313Z,99.90
2018-07-06T13:27:00.005Z,99.90
2018-07-06T13:29:29.499Z,99.90
2018-07-06T13:31:58.310Z,99.90
2018-07-06T13:34:27.057Z,99.90
2018-07-06T13:36:56.552Z,99.90
2018-07-06T13:39:25.424Z,99.90
2018-07-06T13:41:54.319Z,99.90
2018-07-06T13:44:23.171Z,99.90
2018-07-06T13:46:51.966Z,99.90
2018-07-06T13:49:20.838Z,99.90
2018-07-06T13:51:49.664Z,99.90
2018-07-06T13:54:18.706Z,99.90
2018-07-06T13:56:47.434Z,99.90
2018-07-06T14:01:46.813Z,99.90
2018-07-06T14:04:16.151Z,99.90
2018-07-06T14:06:44.941Z,99.90
2018-07-06T14:09:21.926Z,99.90
2018-07-06T14:11:50.914Z,99.90
2018-07-06T14:14:19.835Z,99.90
2018-07-06T14:16:49.786Z,99.90
2018-07-06T14:19:18.740Z,99.90
2018-07-06T14:21:48.122Z,99.90
2018-07-06T14:24:16.887Z,99.90
2018-07-06T14:26:45.728Z,99.90
2018-07-06T14:29:14.627Z,99.90
2018-07-06T14:31:43.605Z,99.90
2018-07-06T14:34:12.335Z,99.90
2018-07-06T14:36:48.232Z,99.90
2018-07-06T14:39:17.018Z,99.90
2018-07-06T14:41:45.761Z,99.90
2018-07-06T14:44:14.569Z,99.90
2018-07-06T14:46:44.429Z,99.90
2018-07-06T14:49:13.176Z,99.90
2018-07-06T14:51:41.920Z,99.90
2018-07-06T14:54:11.142Z,98.80
2018-07-06T14:56:43.320Z,99.90
2018-07-06T14:59:12.224Z,99.10
2018-07-06T15:01:41.241Z,95.60
2018-07-06T15:04:09.989Z,96.90
2018-07-06T15:06:38.910Z,99.20
2018-07-06T15:09:10.020Z,99.90
2018-07-06T15:11:38.903Z,99.90
2018-07-06T15:14:07.836Z,99.90
2018-07-06T15:16:36.646Z,99.90
2018-07-06T15:19:05.639Z,99.80
2018-07-06T15:24:03.850Z,98.90
2018-07-06T15:26:32.618Z,97.20
2018-07-06T15:29:01.684Z,96.70
2018-07-06T15:31:30.536Z,98.00
2018-07-06T15:33:59.305Z,97.10
2018-07-06T15:36:28.117Z,98.20
2018-07-06T15:38:56.896Z,99.10
2018-07-06T15:41:25.862Z,99.90
2018-07-06T15:43:54.671Z,99.90
2018-07-06T15:46:24.615Z,99.90
2018-07-06T15:48:53.406Z,99.90
2018-07-06T15:51:22.249Z,99.90
2018-07-06T15:53:51.013Z,99.90
2018-07-06T15:56:21.825Z,99.90
2018-07-06T15:58:50.570Z,99.90
2018-07-06T16:01:19.306Z,99.90
2018-07-06T16:03:48.144Z,99.90
2018-07-06T16:06:16.908Z,99.90
2018-07-06T16:08:45.634Z,99.90
2018-07-06T16:11:16.462Z,99.90
2018-07-06T16:13:45.443Z,99.90
2018-07-06T16:16:14.272Z,99.90
2018-07-06T16:18:43.037Z,99.90
2018-07-06T16:21:11.807Z,99.90
2018-07-06T16:23:40.626Z,99.90
2018-07-06T16:26:09.524Z,99.90
2018-07-06T16:28:38.298Z,99.90
2018-07-06T16:31:07.038Z,99.90
2018-07-06T16:33:35.824Z,99.90
2018-07-06T16:36:04.626Z,99.90
2018-07-06T16:38:33.504Z,99.90
2018-07-06T16:41:02.320Z,99.90
2018-07-06T16:43:31.198Z,99.90
2018-07-06T16:45:59.960Z,99.90
2018-07-06T16:48:28.677Z,99.90
2018-07-06T16:50:57.554Z,99.90
2018-07-06T16:53:28.375Z,99.90
2018-07-06T16:55:57.103Z,99.90
2018-07-06T16:58:34.320Z,99.90
2018-07-06T17:01:03.065Z,99.90
2018-07-06T17:03:31.879Z,99.90
2018-07-06T17:06:00.866Z,99.90
2018-07-06T17:08:29.578Z,99.90
2018-07-06T17:10:58.481Z,99.90
2018-07-06T17:13:27.923Z,99.90
2018-07-06T17:15:56.775Z,99.90
2018-07-06T17:18:27.558Z,99.90
2018-07-06T17:20:56.355Z,99.90
2018-07-06T17:23:25.052Z,99.90
2018-07-06T17:25:53.772Z,99.90
2018-07-06T17:28:22.469Z,99.90
2018-07-06T17:30:51.288Z,99.90
2018-07-06T17:35:49.912Z,99.90
2018-07-06T17:38:18.796Z,99.90
2018-07-06T17:40:48.280Z,99.90
2018-07-06T17:43:17.091Z,99.90
2018-07-06T17:45:46.699Z,99.90
2018-07-06T17:48:15.441Z,99.90
2018-07-06T17:50:44.224Z,99.90
2018-07-06T17:53:13.030Z,99.90
2018-07-06T17:55:42.076Z,99.90
2018-07-06T17:58:10.781Z,99.90
2018-07-06T18:00:39.520Z,99.90
2018-07-06T18:03:10.266Z,99.90
2018-07-06T18:05:39.086Z,99.90
2018-07-06T18:08:07.780Z,99.90
2018-07-06T18:10:43.393Z,99.90
2018-07-06T18:13:12.128Z,99.90
2018-07-06T18:15:40.876Z,99.90
2018-07-06T18:18:09.800Z,99.90
2018-07-06T18:20:38.682Z,99.90
2018-07-06T18:23:17.402Z,99.90
2018-07-06T18:25:46.069Z,99.90
2018-07-06T18:28:15.865Z,99.90
2018-07-06T18:30:44.692Z,99.90
2018-07-06T18:33:13.451Z,99.90
2018-07-06T18:35:42.196Z,99.90
2018-07-06T18:38:17.073Z,99.90
2018-07-06T18:43:18.004Z,99.90
2018-07-06T18:45:47.789Z,99.90
2018-07-06T18:48:18.602Z,99.90
2018-07-06T18:50:47.317Z,99.90
2018-07-06T18:55:44.602Z,99.90
2018-07-06T18:58:13.749Z,99.90
2018-07-06T19:00:42.583Z,99.90
2018-07-06T19:03:11.284Z,99.90
2018-07-06T19:05:40.069Z,99.90
2018-07-06T19:08:08.977Z,99.90
2018-07-06T19:10:37.700Z,99.90
2018-07-06T19:13:06.414Z,99.90
2018-07-06T19:15:35.157Z,99.90
2018-07-06T19:18:03.862Z,99.90
2018-07-06T19:20:38.177Z,99.90
2018-07-06T19:23:06.914Z,99.90
2018-07-06T19:25:35.632Z,99.90
2018-07-06T19:28:04.357Z,99.90
2018-07-06T19:30:33.084Z,99.90
2018-07-06T19:33:03.891Z,99.90
2018-07-06T19:35:32.680Z,99.90
2018-07-06T19:38:05.280Z,99.90
2018-07-06T19:40:34.107Z,99.90
2018-07-06T19:43:02.910Z,99.90
2018-07-06T19:45:36.315Z,99.90
2018-07-06T19:48:05.038Z,99.90
2018-07-06T19:50:38.838Z,99.90
2018-07-06T19:53:07.629Z,99.90
2018-07-06T19:55:36.477Z,99.90
2018-07-06T19:58:05.383Z,99.90
2018-07-06T20:00:34.136Z,99.90
2018-07-06T20:03:02.825Z,99.90
2018-07-06T20:05:31.532Z,99.90
2018-07-06T20:08:00.238Z,99.90
2018-07-06T20:10:28.923Z,99.90
2018-07-06T20:12:57.657Z,99.90
2018-07-06T20:15:26.336Z,99.90
2018-07-06T20:17:55.076Z,99.90
2018-07-06T20:20:24.861Z,99.90
2018-07-06T20:22:53.917Z,99.90
2018-07-06T20:25:23.497Z,99.90
2018-07-06T20:27:52.181Z,99.90
2018-07-06T20:30:21.055Z,99.90
2018-07-06T20:32:53.412Z,99.90
2018-07-06T20:35:22.332Z,99.90
2018-07-06T20:37:51.195Z,99.90
2018-07-06T20:40:19.946Z,99.90
2018-07-06T20:42:51.916Z,99.90
2018-07-06T20:45:20.634Z,99.90
2018-07-06T20:47:49.994Z,99.90
2018-07-06T20:50:22.642Z,99.90
2018-07-06T20:52:51.380Z,99.90
2018-07-06T20:55:20.138Z,99.90
2018-07-06T20:57:48.861Z,99.90
2018-07-06T21:00:21.223Z,99.90
2018-07-06T21:02:54.949Z,99.90
2018-07-06T21:05:24.336Z,99.90
2018-07-06T21:07:54.465Z,99.90
2018-07-06T21:10:23.158Z,99.90
2018-07-06T21:12:57.447Z,99.90
2018-07-06T21:15:31.222Z,99.90
2018-07-06T21:17:59.906Z,99.90
2018-07-06T21:20:29.337Z,99.90
2018-07-06T21:22:59.685Z,99.90
2018-07-06T21:25:29.707Z,99.90
2018-07-06T21:27:58.364Z,99.90
2018-07-06T21:30:27.132Z,99.90
2018-07-06T21:32:55.815Z,99.90
2018-07-06T21:35:28.488Z,99.90
2018-07-06T21:37:58.030Z,99.90
2018-07-06T21:40:37.580Z,99.90
2018-07-06T21:43:06.312Z,99.90
2018-07-06T21:45:35.038Z,99.90
2018-07-06T21:48:03.725Z,99.90
2018-07-06T21:50:34.295Z,99.90
2018-07-06T21:53:02.963Z,99.90
2018-07-06T21:55:31.836Z,99.90
2018-07-06T21:58:00.521Z,99.90
2018-07-06T22:00:36.710Z,99.90
2018-07-06T22:03:09.013Z,99.90
2018-07-06T22:05:39.574Z,99.90
2018-07-06T22:08:08.661Z,99.90
2018-07-06T22:10:38.070Z,99.90
2018-07-06T22:13:07.389Z,99.90
2018-07-06T22:15:47.022Z,99.90
2018-07-06T22:18:16.993Z,99.90
2018-07-06T22:23:27.696Z,99.90
2018-07-06T22:25:56.466Z,99.90
2018-07-06T22:28:25.178Z,99.90
2018-07-06T22:30:53.950Z,99.90
2018-07-06T22:33:30.190Z,99.90
2018-07-06T22:36:00.259Z,99.90
2018-07-06T22:38:29.664Z,99.90
2018-07-06T22:40:58.527Z,99.90
2018-07-06T22:45:57.658Z,99.90
2018-07-06T22:48:26.376Z,99.90
2018-07-06T22:50:55.191Z,99.90
2018-07-06T22:53:24.523Z,99.90
2018-07-06T22:55:54.174Z,99.90
2018-07-06T22:58:29.155Z,99.90
2018-07-06T23:00:58.862Z,99.90
2018-07-06T23:03:28.562Z,99.90
2018-07-06T23:05:57.702Z,99.90
2018-07-06T23:08:27.357Z,99.90
2018-07-06T23:10:57.542Z,99.90
2018-07-06T23:13:26.252Z,99.90
2018-07-06T23:15:54.954Z,99.90
2018-07-06T23:18:45.016Z,99.90
2018-07-06T23:21:17.082Z,99.90
2018-07-06T23:23:46.177Z,99.90
2018-07-06T23:26:14.872Z,99.90
2018-07-06T23:28:43.615Z,99.90
2018-07-06T23:31:12.378Z,99.90
2018-07-06T23:33:41.097Z,99.90
2018-07-06T23:36:15.494Z,99.90
2018-07-06T23:38:44.197Z,99.90
2018-07-06T23:41:16.250Z,99.90
2018-07-06T23:43:44.982Z,99.90
2018-07-06T23:46:13.742Z,99.90
2018-07-06T23:48:42.448Z,99.90
2018-07-06T23:51:12.315Z,99.90
2018-07-06T23:53:41.489Z,99.90
2018-07-06T23:56:10.151Z,99.90
2018-07-06T23:58:39.933Z,99.90
